IGO171 VILH-VISR
Flight info
| Callsign | IGO171 |
|---|---|
| Flight time | 0h 30m |
| Altitude | 28000 |
| Route | 3400N07520E DCT 3343N07506E |
| Aircraft | A20N/M-SDE2E3FGHIRWXY/LB1 |
Departure
| Time | 2026-05-05 13:08 |
|---|---|
| Airport | Leh Kushok Bakula Rimpochee Airport (VILH) |
Arrival
| Time | 2026-05-05 13:38 |
|---|---|
| Airport | Sheikh ul Alam International Airport (VISR) |
| Time | Latitude | Longitude | Altitude | Speed | Heading |
|---|---|---|---|---|---|
| 2026-05-05 12:55 | 34.14099 | 77.55082 | 10832 ft | 0 kts | 155° |
| 2026-05-05 13:02 | 34.14113 | 77.55073 | 10831 ft | 3 kts | 116° |
| 2026-05-05 13:02 | 34.14115 | 77.55057 | 10836 ft | 0 kts | 65° |
| 2026-05-05 13:03 | 34.14121 | 77.55071 | 10831 ft | 5 kts | 65° |
| 2026-05-05 13:03 | 34.14150 | 77.55155 | 10833 ft | 17 kts | 66° |
| 2026-05-05 13:03 | 34.14201 | 77.55296 | 10834 ft | 16 kts | 88° |
| 2026-05-05 13:03 | 34.14142 | 77.55379 | 10835 ft | 13 kts | 144° |
| 2026-05-05 13:04 | 34.14070 | 77.55434 | 10834 ft | 10 kts | 118° |
| 2026-05-05 13:04 | 34.14064 | 77.55506 | 10836 ft | 9 kts | 100° |
| 2026-05-05 13:04 | 34.14048 | 77.55583 | 10834 ft | 10 kts | 101° |
| 2026-05-05 13:04 | 34.14045 | 77.55673 | 10834 ft | 12 kts | 87° |
| 2026-05-05 13:05 | 34.14049 | 77.55777 | 10833 ft | 13 kts | 87° |
| 2026-05-05 13:05 | 34.14049 | 77.55894 | 10834 ft | 15 kts | 91° |
| 2026-05-05 13:05 | 34.14048 | 77.55976 | 10833 ft | 15 kts | 91° |
| 2026-05-05 13:05 | 34.14011 | 77.56032 | 10836 ft | 7 kts | 246° |
| 2026-05-05 13:06 | 34.13990 | 77.55968 | 10833 ft | 9 kts | 250° |
| 2026-05-05 13:06 | 34.13968 | 77.55895 | 10834 ft | 9 kts | 250° |
| 2026-05-05 13:06 | 34.13954 | 77.55845 | 10832 ft | 10 kts | 250° |
| 2026-05-05 13:06 | 34.13931 | 77.55769 | 10834 ft | 10 kts | 251° |
| 2026-05-05 13:07 | 34.13908 | 77.55688 | 10830 ft | 11 kts | 250° |
| 2026-05-05 13:07 | 34.13874 | 77.55573 | 10833 ft | 11 kts | 250° |
| 2026-05-05 13:07 | 34.13850 | 77.55486 | 10830 ft | 15 kts | 251° |
| 2026-05-05 13:07 | 34.13789 | 77.55274 | 10835 ft | 64 kts | 250° |
| 2026-05-05 13:08 | 34.13574 | 77.54527 | 10833 ft | 124 kts | 251° |
| 2026-05-05 13:08 | 34.13237 | 77.53356 | 10855 ft | 170 kts | 251° |
| 2026-05-05 13:08 | 34.12837 | 77.52008 | 11621 ft | 170 kts | 254° |
| 2026-05-05 13:08 | 34.12445 | 77.50696 | 12479 ft | 164 kts | 252° |
| 2026-05-05 13:09 | 34.12053 | 77.49406 | 13155 ft | 163 kts | 252° |
| 2026-05-05 13:09 | 34.11502 | 77.47678 | 13695 ft | 184 kts | 253° |
| 2026-05-05 13:09 | 34.11187 | 77.46671 | 14005 ft | 189 kts | 253° |
| 2026-05-05 13:09 | 34.10559 | 77.44677 | 14938 ft | 195 kts | 251° |
| 2026-05-05 13:10 | 34.10079 | 77.43140 | 15432 ft | 196 kts | 252° |
| 2026-05-05 13:10 | 34.09758 | 77.42119 | 15823 ft | 198 kts | 252° |
| 2026-05-05 13:10 | 34.09262 | 77.40553 | 16448 ft | 201 kts | 252° |
| 2026-05-05 13:10 | 34.08762 | 77.38984 | 17034 ft | 199 kts | 251° |
| 2026-05-05 13:11 | 34.08271 | 77.37430 | 17678 ft | 199 kts | 251° |
| 2026-05-05 13:11 | 34.07773 | 77.35866 | 18383 ft | 200 kts | 252° |
| 2026-05-05 13:11 | 34.07264 | 77.34302 | 19007 ft | 201 kts | 251° |
| 2026-05-05 13:11 | 34.06750 | 77.32745 | 19532 ft | 198 kts | 252° |
| 2026-05-05 13:12 | 34.06248 | 77.31242 | 20018 ft | 195 kts | 251° |
| 2026-05-05 13:12 | 34.05723 | 77.29680 | 20415 ft | 207 kts | 251° |
| 2026-05-05 13:12 | 34.05174 | 77.28034 | 20816 ft | 216 kts | 251° |
| 2026-05-05 13:12 | 34.04607 | 77.26334 | 21240 ft | 221 kts | 252° |
| 2026-05-05 13:13 | 34.04030 | 77.24601 | 21664 ft | 226 kts | 252° |
| 2026-05-05 13:13 | 34.03414 | 77.22740 | 21707 ft | 246 kts | 252° |
| 2026-05-05 13:13 | 34.02756 | 77.20739 | 21802 ft | 267 kts | 252° |
| 2026-05-05 13:13 | 34.02068 | 77.18631 | 22240 ft | 274 kts | 252° |
| 2026-05-05 13:14 | 34.01370 | 77.16485 | 22503 ft | 286 kts | 252° |
| 2026-05-05 13:14 | 34.00626 | 77.14169 | 22575 ft | 307 kts | 252° |
| 2026-05-05 13:14 | 33.99860 | 77.11690 | 22827 ft | 321 kts | 252° |
| 2026-05-05 13:14 | 33.99092 | 77.09176 | 23735 ft | 313 kts | 253° |
| 2026-05-05 13:15 | 33.98357 | 77.06777 | 24634 ft | 301 kts | 253° |
| 2026-05-05 13:15 | 33.97632 | 77.04427 | 25207 ft | 300 kts | 253° |
| 2026-05-05 13:15 | 33.96894 | 77.02045 | 25494 ft | 308 kts | 253° |
| 2026-05-05 13:15 | 33.96131 | 76.99570 | 25564 ft | 323 kts | 253° |
| 2026-05-05 13:16 | 33.95347 | 76.97005 | 25657 ft | 338 kts | 253° |
| 2026-05-05 13:16 | 33.94520 | 76.94283 | 25754 ft | 352 kts | 253° |
| 2026-05-05 13:16 | 33.93668 | 76.91464 | 25871 ft | 366 kts | 253° |
| 2026-05-05 13:16 | 33.92792 | 76.88556 | 25996 ft | 378 kts | 253° |
| 2026-05-05 13:17 | 33.91876 | 76.85505 | 26134 ft | 391 kts | 253° |
| 2026-05-05 13:17 | 33.90940 | 76.82386 | 26268 ft | 402 kts | 253° |
| 2026-05-05 13:17 | 33.89991 | 76.79212 | 26401 ft | 413 kts | 253° |
| 2026-05-05 13:17 | 33.89007 | 76.75912 | 26527 ft | 424 kts | 253° |
| 2026-05-05 13:18 | 33.88003 | 76.72532 | 26678 ft | 434 kts | 253° |
| 2026-05-05 13:18 | 33.86977 | 76.69068 | 26795 ft | 444 kts | 253° |
| 2026-05-05 13:18 | 33.86111 | 76.65556 | 26907 ft | 428 kts | 262° |
| 2026-05-05 13:18 | 33.85908 | 76.62098 | 27043 ft | 401 kts | 275° |
| 2026-05-05 13:19 | 33.86431 | 76.58914 | 27159 ft | 378 kts | 291° |
| 2026-05-05 13:19 | 33.87655 | 76.56230 | 27272 ft | 357 kts | 309° |
| 2026-05-05 13:19 | 33.89432 | 76.54294 | 27072 ft | 349 kts | 327° |
| 2026-05-05 13:19 | 33.91698 | 76.53232 | 26725 ft | 353 kts | 348° |
| 2026-05-05 13:20 | 33.94175 | 76.53199 | 26535 ft | 361 kts | 2° |
| 2026-05-05 13:20 | 33.96694 | 76.53529 | 26561 ft | 370 kts | 3° |
| 2026-05-05 13:20 | 33.99285 | 76.53582 | 26658 ft | 376 kts | 348° |
| 2026-05-05 13:20 | 34.01812 | 76.52697 | 26779 ft | 383 kts | 332° |
| 2026-05-05 13:21 | 34.04064 | 76.50929 | 26876 ft | 391 kts | 317° |
| 2026-05-05 13:21 | 34.05862 | 76.48425 | 26983 ft | 402 kts | 302° |
| 2026-05-05 13:21 | 34.07057 | 76.45402 | 27263 ft | 407 kts | 287° |
| 2026-05-05 13:21 | 34.07547 | 76.42071 | 27964 ft | 404 kts | 274° |
| 2026-05-05 13:22 | 34.07350 | 76.38672 | 28245 ft | 413 kts | 260° |
| 2026-05-05 13:22 | 34.06528 | 76.35289 | 28304 ft | 427 kts | 253° |
| 2026-05-05 13:22 | 34.04949 | 76.28232 | 28319 ft | 446 kts | 262° |
| 2026-05-05 13:23 | 34.04275 | 76.20664 | 28323 ft | 463 kts | 268° |
| 2026-05-05 13:23 | 34.03921 | 76.12931 | 28329 ft | 468 kts | 269° |
| 2026-05-05 13:24 | 34.03579 | 76.05086 | 28326 ft | 465 kts | 268° |
| 2026-05-05 13:24 | 34.03216 | 75.97361 | 28324 ft | 448 kts | 268° |
| 2026-05-05 13:25 | 34.03035 | 75.93688 | 28139 ft | 433 kts | 268° |
| 2026-05-05 13:25 | 34.02857 | 75.90074 | 27127 ft | 434 kts | 268° |
| 2026-05-05 13:25 | 34.02677 | 75.86416 | 26194 ft | 438 kts | 268° |
| 2026-05-05 13:25 | 34.02493 | 75.82765 | 25625 ft | 432 kts | 268° |
| 2026-05-05 13:26 | 34.02314 | 75.79252 | 25225 ft | 421 kts | 268° |
| 2026-05-05 13:26 | 34.02135 | 75.75739 | 24601 ft | 418 kts | 269° |
| 2026-05-05 13:26 | 34.01958 | 75.72271 | 24027 ft | 413 kts | 269° |
| 2026-05-05 13:26 | 34.01781 | 75.68834 | 23445 ft | 408 kts | 269° |
| 2026-05-05 13:27 | 34.01607 | 75.65450 | 22872 ft | 402 kts | 269° |
| 2026-05-05 13:27 | 34.01435 | 75.62118 | 22320 ft | 396 kts | 269° |
| 2026-05-05 13:27 | 34.01267 | 75.58860 | 21757 ft | 392 kts | 269° |
| 2026-05-05 13:27 | 34.01096 | 75.55557 | 21199 ft | 388 kts | 268° |
| 2026-05-05 13:28 | 34.00932 | 75.52369 | 20643 ft | 385 kts | 269° |
| 2026-05-05 13:28 | 34.00766 | 75.49153 | 19860 ft | 386 kts | 268° |
| 2026-05-05 13:28 | 34.00596 | 75.45916 | 19281 ft | 384 kts | 268° |
| 2026-05-05 13:28 | 34.00426 | 75.42729 | 18738 ft | 381 kts | 268° |
| 2026-05-05 13:29 | 34.00256 | 75.39548 | 18144 ft | 378 kts | 268° |
| 2026-05-05 13:29 | 33.99969 | 75.36412 | 17573 ft | 375 kts | 258° |
| 2026-05-05 13:29 | 33.99009 | 75.33510 | 16983 ft | 375 kts | 240° |
| 2026-05-05 13:29 | 33.97342 | 75.31103 | 16452 ft | 374 kts | 221° |
| 2026-05-05 13:30 | 33.95265 | 75.29322 | 15940 ft | 370 kts | 215° |
| 2026-05-05 13:30 | 33.93106 | 75.27648 | 15353 ft | 367 kts | 214° |
| 2026-05-05 13:30 | 33.90974 | 75.25986 | 14841 ft | 363 kts | 216° |
| 2026-05-05 13:30 | 33.89101 | 75.23954 | 13987 ft | 367 kts | 234° |
| 2026-05-05 13:31 | 33.87895 | 75.21229 | 13014 ft | 372 kts | 253° |
| 2026-05-05 13:31 | 33.87318 | 75.18201 | 12307 ft | 371 kts | 257° |
| 2026-05-05 13:31 | 33.86371 | 75.15373 | 11697 ft | 369 kts | 239° |
| 2026-05-05 13:31 | 33.84722 | 75.13042 | 11205 ft | 364 kts | 221° |
| 2026-05-05 13:32 | 33.82716 | 75.11276 | 11020 ft | 350 kts | 214° |
| 2026-05-05 13:32 | 33.80721 | 75.09722 | 10949 ft | 333 kts | 214° |
| 2026-05-05 13:32 | 33.78840 | 75.08224 | 10947 ft | 315 kts | 217° |
| 2026-05-05 13:32 | 33.77208 | 75.06594 | 10942 ft | 296 kts | 229° |
| 2026-05-05 13:33 | 33.76196 | 75.04563 | 10938 ft | 275 kts | 256° |
| 2026-05-05 13:33 | 33.76096 | 75.02373 | 10944 ft | 254 kts | 285° |
| 2026-05-05 13:33 | 33.76880 | 75.00571 | 10951 ft | 246 kts | 319° |
| 2026-05-05 13:33 | 33.78318 | 74.99453 | 10713 ft | 255 kts | 333° |
| 2026-05-05 13:34 | 33.79923 | 74.98481 | 10267 ft | 260 kts | 332° |
| 2026-05-05 13:34 | 33.81450 | 74.97304 | 9884 ft | 263 kts | 322° |
| 2026-05-05 13:34 | 33.82940 | 74.95766 | 9485 ft | 295 kts | 315° |
| 2026-05-05 13:34 | 33.84355 | 74.94044 | 9077 ft | 296 kts | 315° |
| 2026-05-05 13:35 | 33.85835 | 74.92330 | 8683 ft | 295 kts | 316° |
| 2026-05-05 13:35 | 33.87302 | 74.90627 | 8287 ft | 290 kts | 316° |
| 2026-05-05 13:35 | 33.88718 | 74.88987 | 7931 ft | 273 kts | 316° |
| 2026-05-05 13:35 | 33.90002 | 74.87498 | 7576 ft | 247 kts | 316° |
| 2026-05-05 13:36 | 33.91182 | 74.86129 | 7284 ft | 225 kts | 316° |
| 2026-05-05 13:36 | 33.92272 | 74.84863 | 7046 ft | 211 kts | 316° |
| 2026-05-05 13:36 | 33.93285 | 74.83688 | 6775 ft | 195 kts | 316° |
| 2026-05-05 13:36 | 33.94213 | 74.82611 | 6555 ft | 175 kts | 316° |
| 2026-05-05 13:37 | 33.95042 | 74.81649 | 6298 ft | 157 kts | 315° |
| 2026-05-05 13:37 | 33.95796 | 74.80774 | 6066 ft | 147 kts | 315° |
| 2026-05-05 13:37 | 33.96542 | 74.79907 | 5849 ft | 149 kts | 315° |
| 2026-05-05 13:37 | 33.97273 | 74.79057 | 5622 ft | 148 kts | 315° |
| 2026-05-05 13:38 | 33.98008 | 74.78202 | 5465 ft | 142 kts | 316° |
| 2026-05-05 13:38 | 33.98495 | 74.77635 | 5461 ft | 50 kts | 316° |
| 2026-05-05 13:38 | 33.98724 | 74.77370 | 5462 ft | 44 kts | 316° |
| 2026-05-05 13:38 | 33.98871 | 74.77251 | 5462 ft | 1 kts | 321° |
| 2026-05-05 13:39 | 33.98852 | 74.77233 | 5462 ft | 6 kts | 153° |
| 2026-05-05 13:39 | 33.98787 | 74.77294 | 5462 ft | 20 kts | 139° |
| 2026-05-05 13:39 | 33.98757 | 74.77324 | 5462 ft | 1 kts | 159° |
| 2026-05-05 13:39 | 33.98737 | 74.77316 | 5462 ft | 6 kts | 203° |
| 2026-05-05 13:40 | 33.98699 | 74.77290 | 5462 ft | 7 kts | 219° |
| 2026-05-05 13:40 | 33.98651 | 74.77292 | 5462 ft | 3 kts | 130° |
| 2026-05-05 13:40 | 33.98629 | 74.77322 | 5462 ft | 6 kts | 131° |
| 2026-05-05 13:40 | 33.98590 | 74.77361 | 5462 ft | 9 kts | 141° |
| 2026-05-05 13:41 | 33.98485 | 74.77478 | 5462 ft | 28 kts | 136° |
| 2026-05-05 13:41 | 33.98339 | 74.77645 | 5461 ft | 30 kts | 137° |
| 2026-05-05 13:41 | 33.98182 | 74.77827 | 5461 ft | 35 kts | 135° |
| 2026-05-05 13:41 | 33.97974 | 74.78070 | 5463 ft | 29 kts | 137° |
| 2026-05-05 13:42 | 33.97949 | 74.78151 | 5462 ft | 9 kts | 58° |
| 2026-05-05 13:42 | 33.97994 | 74.78213 | 5462 ft | 11 kts | 42° |
| 2026-05-05 13:42 | 33.98051 | 74.78277 | 5462 ft | 11 kts | 45° |
| 2026-05-05 13:42 | 33.98087 | 74.78350 | 5462 ft | 9 kts | 31° |
| 2026-05-05 13:43 | 33.98148 | 74.78340 | 5462 ft | 10 kts | 347° |
| 2026-05-05 13:43 | 33.98185 | 74.78329 | 5462 ft | 0 kts | 45° |